createdAt,value
2022-08-08T00:00:56.090Z,16.40
2022-08-08T00:03:13.210Z,16.30
2022-08-08T00:06:12.561Z,16.30
2022-08-08T00:09:12.179Z,16.20
2022-08-08T00:12:06.914Z,16.20
2022-08-08T00:14:59.109Z,17.10
2022-08-08T00:18:01.831Z,16.10
2022-08-08T00:20:51.658Z,18.20
2022-08-08T00:23:51.060Z,15.90
2022-08-08T00:26:52.075Z,15.90
2022-08-08T00:29:45.987Z,15.80
2022-08-08T00:32:32.893Z,15.80
2022-08-08T00:35:34.364Z,15.80
2022-08-08T00:38:16.861Z,15.80
2022-08-08T00:41:22.964Z,15.70
2022-08-08T00:44:59.706Z,15.60
2022-08-08T00:48:30.254Z,15.60
2022-08-08T00:51:07.724Z,15.60
2022-08-08T00:54:04.299Z,15.50
2022-08-08T00:57:29.602Z,15.50
2022-08-08T01:00:17.551Z,15.40
2022-08-08T01:04:00.777Z,15.30
2022-08-08T01:06:27.083Z,15.40
2022-08-08T01:09:35.590Z,15.50
2022-08-08T01:12:29.683Z,15.50
2022-08-08T01:15:47.128Z,15.50
2022-08-08T01:18:52.884Z,15.40
2022-08-08T01:22:12.380Z,15.40
2022-08-08T01:25:00.650Z,15.50
2022-08-08T01:27:44.031Z,15.30
2022-08-08T01:30:45.868Z,15.40
2022-08-08T01:34:00.928Z,15.30
2022-08-08T01:37:03.063Z,15.40
2022-08-08T01:39:53.603Z,15.30
2022-08-08T01:42:52.179Z,15.30
2022-08-08T01:45:56.223Z,15.30
2022-08-08T01:49:06.262Z,15.20
2022-08-08T01:52:29.479Z,15.20
2022-08-08T01:55:27.166Z,15.20
2022-08-08T01:58:39.713Z,15.20
2022-08-08T02:01:54.605Z,15.20
2022-08-08T02:04:46.372Z,15.10
2022-08-08T02:07:48.771Z,15.00
2022-08-08T02:10:54.381Z,15.00
2022-08-08T02:13:52.307Z,15.00
2022-08-08T02:16:21.331Z,15.00
2022-08-08T02:19:10.112Z,15.00
2022-08-08T02:22:31.410Z,15.00
2022-08-08T02:25:17.963Z,15.00
2022-08-08T02:28:01.076Z,15.00
2022-08-08T02:30:50.082Z,15.00
2022-08-08T02:34:08.860Z,14.90
2022-08-08T02:36:54.681Z,15.00
2022-08-08T02:40:00.209Z,14.90
2022-08-08T02:44:38.613Z,14.90
2022-08-08T02:46:23.591Z,15.00
2022-08-08T02:49:51.017Z,15.00
2022-08-08T02:52:42.376Z,14.90
2022-08-08T02:55:57.756Z,14.80
2022-08-08T02:59:02.613Z,14.60
2022-08-08T03:02:00.644Z,14.60
2022-08-08T03:05:04.227Z,14.50
2022-08-08T03:07:58.280Z,14.40
2022-08-08T03:10:53.445Z,14.50
2022-08-08T03:15:58.626Z,14.40
2022-08-08T03:16:40.457Z,14.40
2022-08-08T03:19:50.481Z,14.40
2022-08-08T03:22:38.395Z,14.40
2022-08-08T03:25:09.334Z,14.30
2022-08-08T03:27:56.650Z,14.30
2022-08-08T03:30:24.546Z,14.30
2022-08-08T03:33:55.906Z,14.30
2022-08-08T03:35:59.136Z,14.30
2022-08-08T03:38:55.896Z,14.30
2022-08-08T03:42:13.024Z,14.30
2022-08-08T03:43:59.946Z,14.30
2022-08-08T03:46:32.388Z,14.20
2022-08-08T03:49:30.932Z,14.20
2022-08-08T03:51:53.361Z,14.30
2022-08-08T03:54:41.811Z,14.20
2022-08-08T03:58:31.900Z,14.10
2022-08-08T04:00:11.921Z,16.30
2022-08-08T04:02:47.231Z,14.40
2022-08-08T04:05:19.392Z,14.40
2022-08-08T04:07:49.222Z,14.40
2022-08-08T04:10:17.592Z,14.50
2022-08-08T04:12:44.409Z,14.50
2022-08-08T04:15:12.947Z,14.50
2022-08-08T04:17:58.346Z,14.40
2022-08-08T04:20:28.155Z,14.40
2022-08-08T04:22:56.878Z,14.40
2022-08-08T04:25:29.820Z,14.40
2022-08-08T04:28:35.439Z,14.40
2022-08-08T04:30:44.496Z,14.40
2022-08-08T04:33:11.510Z,14.40
2022-08-08T04:35:40.378Z,14.30
2022-08-08T04:38:21.221Z,13.90
2022-08-08T04:40:53.634Z,14.30
2022-08-08T04:43:20.656Z,14.30
2022-08-08T04:45:50.130Z,13.90
2022-08-08T04:48:21.900Z,14.30
2022-08-08T04:50:48.935Z,14.30
2022-08-08T04:54:27.076Z,13.80
2022-08-08T04:56:04.114Z,14.40
2022-08-08T04:58:31.131Z,14.40
2022-08-08T05:00:59.724Z,14.20
2022-08-08T05:04:09.033Z,14.70
2022-08-08T05:06:25.210Z,14.70
2022-08-08T05:08:53.095Z,14.80
2022-08-08T05:11:23.918Z,14.80
2022-08-08T05:13:57.616Z,14.90
2022-08-08T05:16:47.982Z,15.00
2022-08-08T05:20:11.423Z,15.20
2022-08-08T05:22:02.242Z,15.30
2022-08-08T05:24:30.855Z,15.30
2022-08-08T05:26:57.985Z,15.40
2022-08-08T05:29:27.051Z,15.50
2022-08-08T05:32:03.732Z,15.60
2022-08-08T05:34:41.185Z,15.80
2022-08-08T05:37:18.665Z,15.90
2022-08-08T05:39:55.064Z,16.00
2022-08-08T05:42:39.588Z,16.10
2022-08-08T05:45:10.385Z,16.20
2022-08-08T05:48:08.367Z,16.30
2022-08-08T05:50:36.330Z,16.50
2022-08-08T05:53:22.958Z,16.70
2022-08-08T05:56:11.619Z,16.80
2022-08-08T05:58:57.020Z,17.00
2022-08-08T06:01:56.317Z,17.20
2022-08-08T06:04:22.896Z,17.30
2022-08-08T06:07:00.354Z,17.70
2022-08-08T06:10:00.214Z,17.90
2022-08-08T06:12:29.670Z,18.00
2022-08-08T06:15:00.962Z,18.00
2022-08-08T06:17:50.754Z,18.10
2022-08-08T06:20:21.207Z,18.20
2022-08-08T06:22:49.232Z,18.30
2022-08-08T06:25:15.997Z,18.30
2022-08-08T06:28:00.605Z,18.40
2022-08-08T06:30:33.243Z,18.60
2022-08-08T06:33:01.268Z,18.70
2022-08-08T06:36:08.090Z,19.00
2022-08-08T06:38:25.050Z,19.00
2022-08-08T06:41:04.863Z,18.90
2022-08-08T06:43:35.893Z,19.30
2022-08-08T06:46:04.101Z,19.40
2022-08-08T06:48:30.852Z,19.50
2022-08-08T06:50:58.580Z,19.60
2022-08-08T06:53:39.317Z,19.70
2022-08-08T06:56:08.883Z,19.80
2022-08-08T06:58:39.850Z,19.90
2022-08-08T07:01:52.474Z,20.00
2022-08-08T07:04:41.521Z,20.00
2022-08-08T07:06:59.354Z,20.20
2022-08-08T07:09:56.566Z,20.20
2022-08-08T07:12:54.410Z,20.40
2022-08-08T07:16:05.600Z,20.50
2022-08-08T07:18:57.582Z,20.70
2022-08-08T07:21:31.333Z,20.70
2022-08-08T07:24:04.602Z,20.90
2022-08-08T07:26:35.704Z,21.00
2022-08-08T07:29:05.383Z,21.10
2022-08-08T07:31:36.135Z,21.20
2022-08-08T07:34:08.828Z,21.30
2022-08-08T07:36:48.264Z,21.40
2022-08-08T07:39:22.451Z,21.80
2022-08-08T07:42:03.512Z,22.30
2022-08-08T07:44:40.595Z,22.50
2022-08-08T07:47:10.411Z,22.60
2022-08-08T07:49:40.183Z,22.50
2022-08-08T07:52:13.333Z,22.60
2022-08-08T07:54:59.290Z,22.70
2022-08-08T07:58:06.522Z,23.20
2022-08-08T08:00:57.062Z,23.80
2022-08-08T08:03:43.836Z,24.20
2022-08-08T08:06:12.554Z,24.30
2022-08-08T08:08:52.060Z,23.90
2022-08-08T08:11:23.195Z,23.80
2022-08-08T08:14:10.793Z,23.50
2022-08-08T08:16:42.097Z,23.50
2022-08-08T08:19:17.876Z,23.60
2022-08-08T08:21:58.094Z,23.60
2022-08-08T08:24:30.961Z,23.60
2022-08-08T08:26:59.501Z,23.60
2022-08-08T08:29:28.543Z,23.60
2022-08-08T08:31:57.725Z,23.70
2022-08-08T08:34:31.838Z,23.70
2022-08-08T08:37:00.991Z,23.80
2022-08-08T08:40:00.096Z,23.90
2022-08-08T08:42:31.349Z,24.00
2022-08-08T08:45:21.496Z,24.00
2022-08-08T08:47:53.331Z,24.00
2022-08-08T08:50:33.415Z,24.10
2022-08-08T08:53:27.686Z,24.20
2022-08-08T08:55:55.994Z,24.30
2022-08-08T08:58:32.974Z,24.10
2022-08-08T09:01:08.545Z,23.70
2022-08-08T09:03:45.920Z,24.30
2022-08-08T09:06:28.778Z,24.40
2022-08-08T09:09:18.906Z,24.40
2022-08-08T09:12:02.347Z,24.30
2022-08-08T09:14:35.211Z,24.50
2022-08-08T09:17:07.078Z,24.70
2022-08-08T09:22:00.131Z,24.80
2022-08-08T09:22:27.217Z,24.90
2022-08-08T09:24:56.075Z,25.00
2022-08-08T09:27:57.032Z,24.90
2022-08-08T09:30:17.730Z,25.10
2022-08-08T09:33:12.525Z,25.20
2022-08-08T09:35:49.621Z,25.40
2022-08-08T09:38:53.678Z,25.40
2022-08-08T09:42:14.613Z,25.60
2022-08-08T09:44:53.616Z,25.70
2022-08-08T09:47:25.822Z,25.70
2022-08-08T09:50:32.484Z,25.70
2022-08-08T09:53:23.606Z,25.50
2022-08-08T09:56:05.946Z,25.30
2022-08-08T09:58:57.743Z,25.60
2022-08-08T10:02:00.171Z,25.70
2022-08-08T10:04:35.409Z,25.70
2022-08-08T10:07:07.363Z,25.70
2022-08-08T10:09:35.857Z,25.80
2022-08-08T10:12:38.729Z,25.90
2022-08-08T10:15:20.873Z,25.90
2022-08-08T10:18:07.458Z,25.90
2022-08-08T10:20:44.782Z,25.90
2022-08-08T10:23:20.799Z,26.00
2022-08-08T10:26:16.854Z,26.10
2022-08-08T10:29:06.137Z,26.10
2022-08-08T10:31:54.984Z,26.00
2022-08-08T10:34:23.718Z,26.00
2022-08-08T10:36:51.619Z,25.80
2022-08-08T10:39:23.294Z,25.70
2022-08-08T10:42:16.705Z,25.90
2022-08-08T10:44:44.063Z,25.60
2022-08-08T10:47:20.665Z,25.50
2022-08-08T10:50:01.506Z,25.30
2022-08-08T10:52:43.225Z,25.10
2022-08-08T10:55:41.004Z,24.90
2022-08-08T10:58:08.989Z,25.10
2022-08-08T11:00:53.409Z,25.10
2022-08-08T11:04:00.702Z,25.20
2022-08-08T11:06:30.812Z,25.20
2022-08-08T11:09:15.619Z,25.10
2022-08-08T11:12:04.662Z,25.10
2022-08-08T11:14:57.038Z,25.40
2022-08-08T11:17:58.893Z,25.70
2022-08-08T11:20:27.654Z,25.90
2022-08-08T11:22:57.118Z,26.10
2022-08-08T11:25:55.432Z,26.30
2022-08-08T11:28:21.097Z,25.60
2022-08-08T11:30:50.285Z,26.50
2022-08-08T11:33:23.089Z,26.40
2022-08-08T11:36:09.859Z,26.60
2022-08-08T11:38:54.736Z,26.70
2022-08-08T11:41:28.041Z,26.70
2022-08-08T11:44:00.738Z,26.60
2022-08-08T11:46:31.580Z,26.50
2022-08-08T11:49:04.309Z,26.30
2022-08-08T11:51:39.753Z,26.10
2022-08-08T11:54:31.143Z,26.00
2022-08-08T11:57:16.882Z,26.00
2022-08-08T12:00:00.366Z,25.90
2022-08-08T12:02:33.074Z,26.00
2022-08-08T12:05:12.307Z,25.90
2022-08-08T12:07:51.270Z,25.60
2022-08-08T12:10:24.585Z,25.60
2022-08-08T12:13:07.574Z,25.80
2022-08-08T12:15:40.118Z,26.10
2022-08-08T12:18:18.185Z,26.30
2022-08-08T12:20:58.938Z,26.50
2022-08-08T12:23:43.289Z,26.70
2022-08-08T12:26:28.201Z,26.80
2022-08-08T12:29:19.600Z,27.00
2022-08-08T12:31:53.502Z,27.10
2022-08-08T12:34:36.100Z,27.20
2022-08-08T12:37:08.815Z,27.30
2022-08-08T12:39:56.445Z,27.20
2022-08-08T12:42:26.532Z,27.30
2022-08-08T12:45:07.287Z,27.40
2022-08-08T12:48:10.521Z,27.50
2022-08-08T12:50:54.519Z,27.50
2022-08-08T12:53:35.159Z,27.60
2022-08-08T12:56:19.693Z,27.70
2022-08-08T12:58:54.453Z,27.70
2022-08-08T13:01:34.828Z,27.90
2022-08-08T13:04:19.282Z,27.70
2022-08-08T13:07:07.485Z,26.80
2022-08-08T13:10:04.304Z,27.30
2022-08-08T13:12:39.650Z,27.10
2022-08-08T13:15:15.823Z,26.90
2022-08-08T13:17:54.440Z,26.80
2022-08-08T13:20:30.178Z,26.90
2022-08-08T13:25:58.830Z,27.10
2022-08-08T13:28:32.244Z,27.00
2022-08-08T13:31:04.062Z,26.90
2022-08-08T13:33:41.950Z,26.70
2022-08-08T13:36:10.740Z,26.60
2022-08-08T13:38:38.244Z,25.50
2022-08-08T13:41:07.311Z,26.20
2022-08-08T13:43:46.667Z,26.10
2022-08-08T13:46:27.218Z,26.00
2022-08-08T13:49:12.241Z,26.00
2022-08-08T13:51:53.970Z,26.00
2022-08-08T13:54:31.203Z,25.80
2022-08-08T13:57:12.523Z,26.10
2022-08-08T13:59:48.166Z,26.30
2022-08-08T14:02:20.843Z,26.50
2022-08-08T14:05:05.152Z,26.50
2022-08-08T14:07:51.925Z,26.80
2022-08-08T14:10:33.661Z,27.10
2022-08-08T14:13:30.783Z,27.30
2022-08-08T14:16:03.424Z,27.30
2022-08-08T14:18:36.587Z,29.10
2022-08-08T14:21:20.930Z,27.50
2022-08-08T14:24:06.850Z,27.40
2022-08-08T14:26:46.404Z,27.30
2022-08-08T14:29:28.577Z,26.60
2022-08-08T14:32:10.032Z,27.20
2022-08-08T14:34:37.796Z,28.10
2022-08-08T14:37:08.457Z,26.80
2022-08-08T14:39:47.486Z,26.60
2022-08-08T14:42:16.699Z,26.50
2022-08-08T14:44:54.223Z,26.40
2022-08-08T14:47:22.498Z,26.30
2022-08-08T14:50:06.656Z,26.30
2022-08-08T14:53:04.291Z,26.30
2022-08-08T14:55:41.388Z,26.30
2022-08-08T14:58:11.993Z,26.30
2022-08-08T15:00:43.388Z,26.50
2022-08-08T15:03:16.081Z,26.60
2022-08-08T15:05:54.640Z,26.80
2022-08-08T15:08:34.273Z,26.90
2022-08-08T15:11:06.770Z,25.50
2022-08-08T15:13:35.212Z,27.00
2022-08-08T15:16:14.594Z,27.10
2022-08-08T15:18:49.994Z,27.30
2022-08-08T15:21:19.393Z,27.50
2022-08-08T15:23:50.909Z,27.70
2022-08-08T15:26:20.146Z,27.70
2022-08-08T15:28:53.050Z,27.40
2022-08-08T15:31:25.868Z,27.70
2022-08-08T15:34:08.388Z,27.60
2022-08-08T15:36:35.315Z,27.70
2022-08-08T15:39:04.346Z,27.70
2022-08-08T15:41:43.593Z,27.60
2022-08-08T15:44:13.402Z,27.60
2022-08-08T15:46:40.669Z,27.60
2022-08-08T15:49:12.350Z,27.40
2022-08-08T15:51:38.948Z,27.30
2022-08-08T15:54:06.884Z,27.10
2022-08-08T15:56:45.924Z,27.10
2022-08-08T15:59:13.246Z,27.10
2022-08-08T16:01:40.594Z,27.00
2022-08-08T16:04:29.469Z,27.00
2022-08-08T16:06:56.718Z,27.00
2022-08-08T16:13:04.196Z,26.40
2022-08-08T16:13:15.271Z,26.80
2022-08-08T16:14:58.863Z,26.80
2022-08-08T16:17:27.013Z,26.50
2022-08-08T16:20:13.512Z,26.60
2022-08-08T16:22:41.765Z,26.50
2022-08-08T16:25:09.439Z,26.20
2022-08-08T16:27:36.998Z,26.40
2022-08-08T16:30:13.296Z,26.40
2022-08-08T16:32:40.869Z,26.30
2022-08-08T16:35:08.494Z,26.20
2022-08-08T16:37:35.274Z,25.50
2022-08-08T16:40:03.641Z,26.10
2022-08-08T16:42:31.166Z,26.10
2022-08-08T16:45:02.441Z,26.10
2022-08-08T16:47:41.673Z,26.10
2022-08-08T16:50:14.485Z,26.00
2022-08-08T16:55:06.258Z,26.00
2022-08-08T16:55:54.544Z,26.00
2022-08-08T16:58:25.410Z,26.00
2022-08-08T17:00:53.200Z,25.90
2022-08-08T17:03:24.846Z,27.40
2022-08-08T17:06:35.671Z,25.70
2022-08-08T17:08:55.645Z,25.70
2022-08-08T17:11:28.102Z,25.70
2022-08-08T17:14:05.994Z,25.60
2022-08-08T17:16:44.476Z,25.60
2022-08-08T17:19:24.768Z,25.50
2022-08-08T17:21:51.396Z,25.40
2022-08-08T17:24:26.835Z,25.40
2022-08-08T17:26:54.188Z,26.20
2022-08-08T17:29:24.916Z,25.30
2022-08-08T17:31:52.000Z,25.30
2022-08-08T17:34:49.420Z,25.20
2022-08-08T17:37:09.256Z,25.20
2022-08-08T17:40:04.786Z,25.20
2022-08-08T17:42:26.031Z,25.20
2022-08-08T17:44:53.295Z,25.10
2022-08-08T17:47:27.437Z,25.10
2022-08-08T17:50:01.352Z,25.00
2022-08-08T17:52:31.253Z,25.00
2022-08-08T17:55:01.019Z,24.90
2022-08-08T17:57:35.508Z,24.90
2022-08-08T18:00:04.668Z,24.90
2022-08-08T18:02:40.330Z,24.80
2022-08-08T18:05:14.663Z,24.50
2022-08-08T18:08:02.909Z,24.70
2022-08-08T18:10:31.574Z,24.60
2022-08-08T18:12:58.641Z,24.50
2022-08-08T18:15:28.396Z,24.50
2022-08-08T18:18:09.724Z,24.40
2022-08-08T18:20:59.310Z,24.30
2022-08-08T18:23:26.755Z,24.20
2022-08-08T18:25:53.511Z,24.20
2022-08-08T18:28:25.419Z,24.00
2022-08-08T18:30:52.751Z,23.90
2022-08-08T18:33:36.635Z,23.70
2022-08-08T18:36:09.141Z,23.60
2022-08-08T18:38:46.632Z,23.50
2022-08-08T18:41:15.873Z,23.40
2022-08-08T18:43:43.529Z,23.30
2022-08-08T18:46:54.479Z,23.20
2022-08-08T18:48:58.390Z,23.20
2022-08-08T18:51:53.878Z,23.10
2022-08-08T18:54:21.940Z,23.10
2022-08-08T18:56:49.918Z,22.90
2022-08-08T18:59:16.580Z,22.80
2022-08-08T19:02:25.311Z,22.70
2022-08-08T19:04:29.851Z,22.70
2022-08-08T19:06:56.765Z,22.60
2022-08-08T19:09:49.189Z,22.50
2022-08-08T19:12:13.337Z,22.40
2022-08-08T19:14:40.400Z,22.30
2022-08-08T19:17:10.679Z,22.30
2022-08-08T19:19:43.873Z,22.10
2022-08-08T19:22:11.070Z,22.10
2022-08-08T19:24:53.464Z,22.00
2022-08-08T19:27:56.265Z,22.00
2022-08-08T19:30:18.050Z,21.90
2022-08-08T19:32:51.511Z,21.90
2022-08-08T19:35:20.027Z,21.80
2022-08-08T19:37:57.631Z,21.80
2022-08-08T19:40:30.694Z,21.80
2022-08-08T19:42:58.207Z,21.80
2022-08-08T19:45:58.254Z,21.80
2022-08-08T19:48:28.861Z,21.70
2022-08-08T19:51:01.388Z,21.00
2022-08-08T19:53:53.255Z,21.60
2022-08-08T19:56:16.340Z,21.50
2022-08-08T19:58:51.429Z,21.40
2022-08-08T20:01:22.688Z,21.40
2022-08-08T20:04:00.905Z,21.30
2022-08-08T20:06:29.789Z,21.30
2022-08-08T20:08:56.833Z,21.20
2022-08-08T20:11:24.590Z,21.10
2022-08-08T20:14:13.173Z,21.10
2022-08-08T20:16:40.441Z,21.00
2022-08-08T20:19:08.594Z,20.80
2022-08-08T20:21:37.338Z,21.00
2022-08-08T20:24:05.756Z,21.00
2022-08-08T20:26:33.792Z,21.00
2022-08-08T20:29:01.679Z,20.90
2022-08-08T20:32:06.955Z,20.90
2022-08-08T20:34:28.823Z,20.80
2022-08-08T20:37:03.099Z,20.70
2022-08-08T20:39:39.769Z,20.70
2022-08-08T20:42:23.784Z,20.80
2022-08-08T20:44:57.097Z,20.80
2022-08-08T20:47:25.374Z,20.70
2022-08-08T20:49:54.089Z,20.60
2022-08-08T20:52:23.223Z,20.70
2022-08-08T20:54:49.988Z,20.60
2022-08-08T20:57:18.901Z,20.60
2022-08-08T20:59:47.806Z,20.60
2022-08-08T21:02:25.342Z,20.60
2022-08-08T21:05:01.158Z,20.50
2022-08-08T21:07:47.510Z,20.50
2022-08-08T21:10:16.794Z,20.30
2022-08-08T21:12:46.079Z,21.00
2022-08-08T21:15:16.691Z,20.30
2022-08-08T21:18:12.100Z,20.30
2022-08-08T21:20:39.370Z,20.20
2022-08-08T21:23:09.921Z,20.20
2022-08-08T21:25:39.924Z,20.20
2022-08-08T21:28:15.091Z,20.20
2022-08-08T21:30:45.205Z,20.10
2022-08-08T21:33:16.753Z,20.00
2022-08-08T21:36:13.746Z,20.00
2022-08-08T21:38:30.227Z,19.90
2022-08-08T21:40:57.938Z,19.90
2022-08-08T21:43:33.374Z,19.80
2022-08-08T21:48:20.427Z,19.80
2022-08-08T21:48:56.822Z,19.80
2022-08-08T21:54:34.836Z,19.80
2022-08-08T21:54:53.710Z,19.80
2022-08-08T21:57:07.281Z,19.80
2022-08-08T22:00:01.802Z,19.90
2022-08-08T22:02:23.425Z,19.80
2022-08-08T22:04:58.569Z,19.80
2022-08-08T22:07:39.551Z,19.90
2022-08-08T22:10:18.341Z,19.90
2022-08-08T22:13:00.324Z,19.90
2022-08-08T22:15:43.015Z,19.90
2022-08-08T22:18:26.523Z,19.90
2022-08-08T22:20:54.751Z,19.60
2022-08-08T22:23:21.396Z,19.90
2022-08-08T22:26:26.957Z,20.00
2022-08-08T22:29:14.282Z,20.00
2022-08-08T22:31:25.212Z,19.70
2022-08-08T22:34:12.587Z,20.00
2022-08-08T22:36:42.716Z,20.00
2022-08-08T22:39:18.856Z,20.10
2022-08-08T22:41:45.835Z,20.00
2022-08-08T22:44:13.003Z,20.00
2022-08-08T22:46:40.011Z,19.90
2022-08-08T22:49:09.049Z,19.90
2022-08-08T22:51:42.874Z,19.90
2022-08-08T22:54:33.286Z,20.00
2022-08-08T22:56:59.978Z,19.90
2022-08-08T22:59:27.101Z,19.80
2022-08-08T23:02:04.625Z,19.80
2022-08-08T23:04:55.800Z,19.80
2022-08-08T23:07:24.722Z,19.80
2022-08-08T23:10:11.864Z,19.70
2022-08-08T23:12:46.559Z,19.70
2022-08-08T23:16:39.817Z,19.70
2022-08-08T23:18:01.825Z,19.70
2022-08-08T23:20:30.949Z,19.70
2022-08-08T23:22:57.529Z,19.70
2022-08-08T23:25:24.244Z,19.70
2022-08-08T23:27:54.259Z,19.70
2022-08-08T23:30:22.617Z,19.60
2022-08-08T23:32:50.573Z,19.60
2022-08-08T23:35:18.817Z,19.60
2022-08-08T23:38:03.075Z,19.50
2022-08-08T23:40:30.686Z,19.50
2022-08-08T23:42:57.676Z,19.40
2022-08-08T23:49:00.076Z,19.20
2022-08-08T23:49:08.141Z,19.30
2022-08-08T23:50:58.335Z,19.20
2022-08-08T23:54:06.430Z,19.30
2022-08-08T23:56:12.108Z,19.30
2022-08-08T23:58:38.949Z,19.30
